createdAt,value
2022-10-25T00:01:17.889Z,13.40
2022-10-25T00:03:44.982Z,13.40
2022-10-25T00:06:12.513Z,13.40
2022-10-25T00:08:39.841Z,13.50
2022-10-25T00:11:19.105Z,13.50
2022-10-25T00:13:46.008Z,13.50
2022-10-25T00:16:18.095Z,13.60
2022-10-25T00:18:45.055Z,13.60
2022-10-25T00:21:11.989Z,13.60
2022-10-25T00:23:38.931Z,13.60
2022-10-25T00:26:09.194Z,13.60
2022-10-25T00:28:36.240Z,13.60
2022-10-25T00:31:06.039Z,13.60
2022-10-25T00:33:34.441Z,13.60
2022-10-25T00:36:06.278Z,13.70
2022-10-25T00:38:33.622Z,13.60
2022-10-25T00:41:01.091Z,13.70
2022-10-25T00:43:42.352Z,13.70
2022-10-25T00:46:18.071Z,13.70
2022-10-25T00:48:52.923Z,13.60
2022-10-25T00:51:22.097Z,13.60
2022-10-25T00:53:49.708Z,13.50
2022-10-25T00:56:22.094Z,13.60
2022-10-25T00:58:54.625Z,13.60
2022-10-25T01:01:22.521Z,13.40
2022-10-25T01:03:52.478Z,13.30
2022-10-25T01:06:25.407Z,13.30
2022-10-25T01:08:53.202Z,13.20
2022-10-25T01:11:20.478Z,13.20
2022-10-25T01:13:49.089Z,13.20
2022-10-25T01:16:49.438Z,13.20
2022-10-25T01:19:53.195Z,13.20
2022-10-25T01:22:34.350Z,13.10
2022-10-25T01:25:38.647Z,13.10
2022-10-25T01:28:13.159Z,13.10
2022-10-25T01:31:13.450Z,13.10
2022-10-25T01:33:46.457Z,13.20
2022-10-25T01:36:43.435Z,13.20
2022-10-25T01:39:19.612Z,13.20
2022-10-25T01:42:09.091Z,13.20
2022-10-25T01:45:11.159Z,13.30
2022-10-25T01:47:45.601Z,13.20
2022-10-25T01:50:19.195Z,13.20
2022-10-25T01:52:46.124Z,13.10
2022-10-25T01:55:14.543Z,13.10
2022-10-25T01:57:56.504Z,13.00
2022-10-25T02:00:24.979Z,13.10
2022-10-25T02:03:06.566Z,13.20
2022-10-25T02:05:46.003Z,13.10
2022-10-25T02:08:40.887Z,13.20
2022-10-25T02:11:31.457Z,13.20
2022-10-25T02:14:21.554Z,13.30
2022-10-25T02:17:03.550Z,13.20
2022-10-25T02:19:42.595Z,13.20
2022-10-25T02:22:12.398Z,13.30
2022-10-25T02:24:43.177Z,13.30
2022-10-25T02:27:11.608Z,13.50
2022-10-25T02:29:39.891Z,13.40
2022-10-25T02:32:07.407Z,13.40
2022-10-25T02:34:34.934Z,13.40
2022-10-25T02:37:01.879Z,13.40
2022-10-25T02:39:31.505Z,13.40
2022-10-25T02:41:59.086Z,13.40
2022-10-25T02:44:25.972Z,13.40
2022-10-25T02:46:52.868Z,13.40
2022-10-25T02:49:19.932Z,13.40
2022-10-25T02:51:46.931Z,13.40
2022-10-25T02:54:13.907Z,13.40
2022-10-25T02:56:40.881Z,13.40
2022-10-25T02:59:07.816Z,13.40
2022-10-25T03:01:34.817Z,13.40
2022-10-25T03:04:01.767Z,13.40
2022-10-25T03:06:28.723Z,13.40
2022-10-25T03:08:55.683Z,13.40
2022-10-25T03:11:22.653Z,13.30
2022-10-25T03:13:49.561Z,13.40
2022-10-25T03:16:16.470Z,13.30
2022-10-25T03:18:43.446Z,13.30
2022-10-25T03:21:10.386Z,13.30
2022-10-25T03:23:37.323Z,13.20
2022-10-25T03:26:04.376Z,13.30
2022-10-25T03:28:31.972Z,13.20
2022-10-25T03:30:59.930Z,13.20
2022-10-25T03:33:27.404Z,13.20
2022-10-25T03:35:55.171Z,13.20
2022-10-25T03:38:22.453Z,13.20
2022-10-25T03:40:49.371Z,13.20
2022-10-25T03:43:16.619Z,13.20
2022-10-25T03:45:43.557Z,13.20
2022-10-25T03:48:10.563Z,13.10
2022-10-25T03:50:37.648Z,13.10
2022-10-25T03:53:05.302Z,13.00
2022-10-25T03:55:33.071Z,12.90
2022-10-25T03:58:00.003Z,12.90
2022-10-25T04:00:27.768Z,12.80
2022-10-25T04:02:59.423Z,12.80
2022-10-25T04:05:30.617Z,12.80
2022-10-25T04:07:57.589Z,12.80
2022-10-25T04:10:25.318Z,12.80
2022-10-25T04:12:53.970Z,12.80
2022-10-25T04:15:22.836Z,12.80
2022-10-25T04:17:53.597Z,12.80
2022-10-25T04:20:21.438Z,12.80
2022-10-25T04:22:55.827Z,12.90
2022-10-25T04:25:24.371Z,12.90
2022-10-25T04:27:51.331Z,12.80
2022-10-25T04:30:18.486Z,12.90
2022-10-25T04:32:45.953Z,12.90
2022-10-25T04:35:13.843Z,12.90
2022-10-25T04:37:40.750Z,12.90
2022-10-25T04:40:08.660Z,12.90
2022-10-25T04:42:35.945Z,12.80
2022-10-25T04:45:03.089Z,12.80
2022-10-25T04:47:33.597Z,12.70
2022-10-25T04:50:00.736Z,12.70
2022-10-25T04:52:29.840Z,12.70
2022-10-25T04:54:57.220Z,12.70
2022-10-25T04:57:25.212Z,12.80
2022-10-25T04:59:52.865Z,12.70
2022-10-25T05:02:19.809Z,12.70
2022-10-25T05:04:46.839Z,12.70
2022-10-25T05:07:13.790Z,12.70
2022-10-25T05:09:43.914Z,12.60
2022-10-25T05:12:14.292Z,12.50
2022-10-25T05:14:41.155Z,12.60
2022-10-25T05:17:08.100Z,12.60
2022-10-25T05:19:35.006Z,12.60
2022-10-25T05:22:01.971Z,12.70
2022-10-25T05:24:28.987Z,12.70
2022-10-25T05:26:55.900Z,12.70
2022-10-25T05:29:22.854Z,12.80
2022-10-25T05:31:49.798Z,12.90
2022-10-25T05:34:16.674Z,12.90
2022-10-25T05:36:43.554Z,13.00
2022-10-25T05:39:10.492Z,13.10
2022-10-25T05:41:37.597Z,13.20
2022-10-25T05:44:05.487Z,13.30
2022-10-25T05:46:32.644Z,13.40
2022-10-25T05:49:00.028Z,13.50
2022-10-25T05:51:36.293Z,13.60
2022-10-25T05:54:14.566Z,13.70
2022-10-25T05:56:42.687Z,13.80
2022-10-25T05:59:11.979Z,13.90
2022-10-25T06:01:41.815Z,14.00
2022-10-25T06:04:09.672Z,14.10
2022-10-25T06:06:37.812Z,14.20
2022-10-25T06:09:05.960Z,14.20
2022-10-25T06:11:33.511Z,14.20
2022-10-25T06:14:00.585Z,14.20
2022-10-25T06:16:27.964Z,14.20
2022-10-25T06:18:54.974Z,14.20
2022-10-25T06:21:25.370Z,14.20
2022-10-25T06:23:53.620Z,14.20
2022-10-25T06:26:27.000Z,14.20
2022-10-25T06:28:57.090Z,14.30
2022-10-25T06:31:24.457Z,14.30
2022-10-25T06:33:51.621Z,14.40
2022-10-25T06:36:24.091Z,14.40
2022-10-25T06:38:51.563Z,14.50
2022-10-25T06:41:27.863Z,14.50
2022-10-25T06:43:55.805Z,14.60
2022-10-25T06:46:30.038Z,14.60
2022-10-25T06:48:57.919Z,14.70
2022-10-25T06:51:26.667Z,14.80
2022-10-25T06:53:55.355Z,14.90
2022-10-25T06:56:22.324Z,14.90
2022-10-25T06:58:49.471Z,15.10
2022-10-25T07:01:19.525Z,15.20
2022-10-25T07:03:47.431Z,15.20
2022-10-25T07:06:16.266Z,15.40
2022-10-25T07:08:45.524Z,15.40
2022-10-25T07:11:20.131Z,15.60
2022-10-25T07:13:47.858Z,15.70
2022-10-25T07:16:17.307Z,15.70
2022-10-25T07:18:44.746Z,15.80
2022-10-25T07:21:14.868Z,15.90
2022-10-25T07:23:43.301Z,15.90
2022-10-25T07:26:15.231Z,15.90
2022-10-25T07:28:47.605Z,16.00
2022-10-25T07:31:23.986Z,16.10
2022-10-25T07:33:53.106Z,16.10
2022-10-25T07:36:20.879Z,16.20
2022-10-25T07:38:47.987Z,16.20
2022-10-25T07:41:15.358Z,16.30
2022-10-25T07:43:43.080Z,16.40
2022-10-25T07:46:10.065Z,16.50
2022-10-25T07:48:37.335Z,16.60
2022-10-25T07:51:10.960Z,16.60
2022-10-25T07:53:38.068Z,16.70
2022-10-25T07:56:05.292Z,16.70
2022-10-25T07:58:32.598Z,16.80
2022-10-25T08:01:08.056Z,16.80
2022-10-25T08:03:35.327Z,16.70
2022-10-25T08:06:02.939Z,16.70
2022-10-25T08:08:31.613Z,16.70
2022-10-25T08:10:59.891Z,16.80
2022-10-25T08:13:26.806Z,16.80
2022-10-25T08:15:55.420Z,16.70
2022-10-25T08:18:23.690Z,16.70
2022-10-25T08:21:02.229Z,16.60
2022-10-25T08:23:32.101Z,16.80
2022-10-25T08:26:00.369Z,17.00
2022-10-25T08:28:27.386Z,17.20
2022-10-25T08:30:55.827Z,17.20
2022-10-25T08:33:23.841Z,17.40
2022-10-25T08:35:50.802Z,17.40
2022-10-25T08:38:18.578Z,17.50
2022-10-25T08:40:57.685Z,17.50
2022-10-25T08:43:40.973Z,17.40
2022-10-25T08:46:23.410Z,17.40
2022-10-25T08:49:06.815Z,17.40
2022-10-25T08:51:37.919Z,17.40
2022-10-25T08:54:14.810Z,17.50
2022-10-25T08:56:56.484Z,17.70
2022-10-25T08:59:30.403Z,17.90
2022-10-25T09:01:59.974Z,18.00
2022-10-25T09:04:29.241Z,18.20
2022-10-25T09:06:58.930Z,18.20
2022-10-25T09:09:38.083Z,18.20
2022-10-25T09:12:04.980Z,18.20
2022-10-25T09:14:53.919Z,18.20
2022-10-25T09:17:34.459Z,18.20
2022-10-25T09:20:04.091Z,18.30
2022-10-25T09:22:46.027Z,18.40
2022-10-25T09:25:41.084Z,18.40
2022-10-25T09:28:24.509Z,18.30
2022-10-25T09:30:56.769Z,18.40
2022-10-25T09:33:30.708Z,18.50
2022-10-25T09:35:58.898Z,18.50
2022-10-25T09:38:42.713Z,18.50
2022-10-25T09:41:48.797Z,18.60
2022-10-25T09:44:40.439Z,18.70
2022-10-25T09:47:43.048Z,19.00
2022-10-25T09:50:21.684Z,19.10
2022-10-25T09:53:04.350Z,19.10
2022-10-25T09:55:49.582Z,19.10
2022-10-25T09:58:40.145Z,19.20
2022-10-25T10:01:26.795Z,19.30
2022-10-25T10:04:06.125Z,19.40
2022-10-25T10:06:37.792Z,19.60
2022-10-25T10:09:07.133Z,19.60
2022-10-25T10:11:36.003Z,19.60
2022-10-25T10:14:10.019Z,19.70
2022-10-25T10:16:45.153Z,19.70
2022-10-25T10:19:19.173Z,19.60
2022-10-25T10:21:56.555Z,19.70
2022-10-25T10:24:28.690Z,19.80
2022-10-25T10:26:58.646Z,19.80
2022-10-25T10:29:28.789Z,20.00
2022-10-25T10:32:01.710Z,20.00
2022-10-25T10:34:43.520Z,20.10
2022-10-25T10:37:21.843Z,20.30
2022-10-25T10:39:57.565Z,20.50
2022-10-25T10:45:08.199Z,20.60
2022-10-25T10:47:46.186Z,20.50
2022-10-25T10:50:25.953Z,20.40
2022-10-25T10:52:59.435Z,20.40
2022-10-25T10:55:38.096Z,20.40
2022-10-25T10:58:13.839Z,20.50
2022-10-25T11:00:52.730Z,20.50
2022-10-25T11:03:48.878Z,20.60
2022-10-25T11:06:31.046Z,20.60
2022-10-25T11:09:13.026Z,20.70
2022-10-25T11:11:40.665Z,20.80
2022-10-25T11:14:17.802Z,20.80
2022-10-25T11:17:11.002Z,20.70
2022-10-25T11:20:07.204Z,20.80
2022-10-25T11:23:04.282Z,21.00
2022-10-25T11:25:47.403Z,21.10
2022-10-25T11:28:54.389Z,21.50
2022-10-25T11:31:52.102Z,21.50
2022-10-25T11:34:27.960Z,21.50
2022-10-25T11:37:09.556Z,21.60
2022-10-25T11:39:48.618Z,21.60
2022-10-25T11:42:43.300Z,21.70
2022-10-25T11:45:40.910Z,21.80
2022-10-25T11:48:22.749Z,21.90
2022-10-25T11:51:00.053Z,22.10
2022-10-25T11:53:41.992Z,22.00
2022-10-25T11:56:14.688Z,22.00
2022-10-25T11:58:46.299Z,22.00
2022-10-25T12:01:24.500Z,22.10
2022-10-25T12:04:37.088Z,22.00
2022-10-25T12:07:09.300Z,22.10
2022-10-25T12:09:58.716Z,22.50
2022-10-25T12:12:37.353Z,22.50
2022-10-25T12:15:05.329Z,22.60
2022-10-25T12:17:34.580Z,22.90
2022-10-25T12:20:06.553Z,22.70
2022-10-25T12:22:45.812Z,22.90
2022-10-25T12:25:33.984Z,22.90
2022-10-25T12:28:11.960Z,22.80
2022-10-25T12:30:41.201Z,22.80
2022-10-25T12:33:36.160Z,23.00
2022-10-25T12:36:25.655Z,23.10
2022-10-25T12:38:52.580Z,23.00
2022-10-25T12:41:36.310Z,23.00
2022-10-25T12:44:17.952Z,23.00
2022-10-25T12:46:47.578Z,23.00
2022-10-25T12:49:42.362Z,22.80
2022-10-25T12:52:33.853Z,22.40
2022-10-25T12:55:22.024Z,22.30
2022-10-25T12:58:01.199Z,22.20
2022-10-25T13:00:32.403Z,22.20
2022-10-25T13:03:38.428Z,22.20
2022-10-25T13:06:35.486Z,22.30
2022-10-25T13:09:09.675Z,22.50
2022-10-25T13:11:48.059Z,22.50
2022-10-25T13:14:36.792Z,22.60
2022-10-25T13:17:18.950Z,22.90
2022-10-25T13:19:54.502Z,22.80
2022-10-25T13:22:46.729Z,22.60
2022-10-25T13:25:13.758Z,22.50
2022-10-25T13:28:15.597Z,22.60
2022-10-25T13:30:43.530Z,22.40
2022-10-25T13:33:16.611Z,22.40
2022-10-25T13:35:43.931Z,22.00
2022-10-25T13:38:24.225Z,21.70
2022-10-25T13:41:23.307Z,21.70
2022-10-25T13:44:05.131Z,21.70
2022-10-25T13:46:41.404Z,21.40
2022-10-25T13:49:29.271Z,21.20
2022-10-25T13:51:59.267Z,21.20
2022-10-25T13:54:38.255Z,21.10
2022-10-25T13:57:25.080Z,21.10
2022-10-25T13:59:55.071Z,20.90
2022-10-25T14:02:22.283Z,21.10
2022-10-25T14:04:49.282Z,20.90
2022-10-25T14:07:41.236Z,20.80
2022-10-25T14:10:16.082Z,20.80
2022-10-25T14:12:48.973Z,20.80
2022-10-25T14:15:33.872Z,20.70
2022-10-25T14:18:07.863Z,20.60
2022-10-25T14:20:36.294Z,20.70
2022-10-25T14:23:06.774Z,20.60
2022-10-25T14:25:42.894Z,20.50
2022-10-25T14:28:38.637Z,20.50
2022-10-25T14:31:07.040Z,20.70
2022-10-25T14:33:39.481Z,20.60
2022-10-25T14:36:36.712Z,20.70
2022-10-25T14:39:23.991Z,20.60
2022-10-25T14:41:58.029Z,20.50
2022-10-25T14:44:33.166Z,20.40
2022-10-25T14:47:01.071Z,20.30
2022-10-25T14:49:28.899Z,20.20
2022-10-25T14:52:00.742Z,20.10
2022-10-25T14:54:30.895Z,20.00
2022-10-25T14:57:08.972Z,20.00
2022-10-25T14:59:48.269Z,19.80
2022-10-25T15:02:21.100Z,19.60
2022-10-25T15:04:50.749Z,19.60
2022-10-25T15:07:33.202Z,19.50
2022-10-25T15:10:02.538Z,19.30
2022-10-25T15:12:31.845Z,19.30
2022-10-25T15:15:19.972Z,19.30
2022-10-25T15:17:53.220Z,19.30
2022-10-25T15:20:20.454Z,19.20
2022-10-25T15:22:50.211Z,19.20
2022-10-25T15:25:19.647Z,19.10
2022-10-25T15:27:46.985Z,19.20
2022-10-25T15:30:38.692Z,19.10
2022-10-25T15:33:14.306Z,19.10
2022-10-25T15:36:02.533Z,19.10
2022-10-25T15:39:06.334Z,19.00
2022-10-25T15:41:27.082Z,18.90
2022-10-25T15:43:54.595Z,18.80
2022-10-25T15:46:36.450Z,18.80
2022-10-25T15:49:08.595Z,18.70
2022-10-25T15:51:39.595Z,18.50
2022-10-25T15:54:18.640Z,18.40
2022-10-25T15:56:45.834Z,18.30
2022-10-25T15:59:14.137Z,18.20
2022-10-25T16:01:43.081Z,18.10
2022-10-25T16:04:17.394Z,18.00
2022-10-25T16:06:45.295Z,17.90
2022-10-25T16:09:12.639Z,17.80
2022-10-25T16:11:46.289Z,17.80
2022-10-25T16:14:32.077Z,17.70
2022-10-25T16:16:59.383Z,17.70
2022-10-25T16:19:28.477Z,17.60
2022-10-25T16:21:55.410Z,17.60
2022-10-25T16:24:22.740Z,17.50
2022-10-25T16:26:51.277Z,17.50
2022-10-25T16:29:25.738Z,17.60
2022-10-25T16:31:54.146Z,17.60
2022-10-25T16:34:21.455Z,17.60
2022-10-25T16:36:50.600Z,17.50
2022-10-25T16:39:18.055Z,17.50
2022-10-25T16:41:47.012Z,17.50
2022-10-25T16:44:16.371Z,17.50
2022-10-25T16:46:44.084Z,17.50
2022-10-25T16:49:11.714Z,17.50
2022-10-25T16:51:39.899Z,17.40
2022-10-25T16:54:07.831Z,17.40
2022-10-25T16:56:35.661Z,17.40
2022-10-25T16:59:02.824Z,17.30
2022-10-25T17:01:34.340Z,17.30
2022-10-25T17:04:02.803Z,17.40
2022-10-25T17:06:41.645Z,17.40
2022-10-25T17:09:09.348Z,17.40
2022-10-25T17:11:36.588Z,17.40
2022-10-25T17:14:06.138Z,17.40
2022-10-25T17:16:33.451Z,17.30
2022-10-25T17:19:00.603Z,17.20
2022-10-25T17:21:28.468Z,17.10
2022-10-25T17:23:56.295Z,17.00
2022-10-25T17:26:23.226Z,16.90
2022-10-25T17:28:50.125Z,16.80
2022-10-25T17:31:17.625Z,16.70
2022-10-25T17:33:44.731Z,16.50
2022-10-25T17:36:14.508Z,16.60
2022-10-25T17:38:41.714Z,16.60
2022-10-25T17:41:09.455Z,16.60
2022-10-25T17:43:37.977Z,16.60
2022-10-25T17:46:26.016Z,16.50
2022-10-25T17:48:58.627Z,16.40
2022-10-25T17:51:25.514Z,16.30
2022-10-25T17:53:54.369Z,16.30
2022-10-25T17:56:23.908Z,16.20
2022-10-25T17:58:51.492Z,16.10
2022-10-25T18:01:24.422Z,16.10
2022-10-25T18:03:51.777Z,16.00
2022-10-25T18:08:58.006Z,15.90
2022-10-25T18:11:27.121Z,15.90
2022-10-25T18:13:56.482Z,15.90
2022-10-25T18:16:27.969Z,15.90
2022-10-25T18:19:00.695Z,15.90
2022-10-25T18:21:27.660Z,15.80
2022-10-25T18:24:05.224Z,15.80
2022-10-25T18:26:33.655Z,15.80
2022-10-25T18:29:00.850Z,15.80
2022-10-25T18:31:27.775Z,15.90
2022-10-25T18:33:59.272Z,15.90
2022-10-25T18:36:28.050Z,16.00
2022-10-25T18:38:55.317Z,16.00
2022-10-25T18:41:25.002Z,16.00
2022-10-25T18:43:52.463Z,15.90
2022-10-25T18:46:19.638Z,15.90
2022-10-25T18:48:51.587Z,15.90
2022-10-25T18:51:20.034Z,15.90
2022-10-25T18:53:47.239Z,15.80
2022-10-25T18:56:19.543Z,15.90
2022-10-25T18:58:49.005Z,15.80
2022-10-25T19:01:24.148Z,15.80
2022-10-25T19:03:52.140Z,15.70
2022-10-25T19:06:19.389Z,15.70
2022-10-25T19:08:46.402Z,15.60
2022-10-25T19:11:14.081Z,15.60
2022-10-25T19:13:41.253Z,15.50
2022-10-25T19:16:10.535Z,15.60
2022-10-25T19:18:40.203Z,15.60
2022-10-25T19:21:10.462Z,15.70
2022-10-25T19:23:39.255Z,15.70
2022-10-25T19:26:09.113Z,15.60
2022-10-25T19:28:36.783Z,15.60
2022-10-25T19:31:08.862Z,15.50
2022-10-25T19:33:36.573Z,15.40
2022-10-25T19:36:09.367Z,15.40
2022-10-25T19:38:36.904Z,15.30
2022-10-25T19:41:06.580Z,15.20
2022-10-25T19:43:34.404Z,15.20
2022-10-25T19:46:04.710Z,15.10
2022-10-25T19:48:32.178Z,15.10
2022-10-25T19:51:08.666Z,15.00
2022-10-25T19:53:36.056Z,14.90
2022-10-25T19:56:08.631Z,14.80
2022-10-25T19:58:36.068Z,14.80
2022-10-25T20:01:04.561Z,14.80
2022-10-25T20:03:31.609Z,14.70
2022-10-25T20:06:00.668Z,14.80
2022-10-25T20:08:27.847Z,14.90
2022-10-25T20:10:55.047Z,14.90
2022-10-25T20:13:21.981Z,15.00
2022-10-25T20:15:51.550Z,15.10
2022-10-25T20:18:20.293Z,15.10
2022-10-25T20:20:53.726Z,15.10
2022-10-25T20:23:21.032Z,15.00
2022-10-25T20:25:47.985Z,15.10
2022-10-25T20:28:14.864Z,15.10
2022-10-25T20:30:41.858Z,15.00
2022-10-25T20:33:09.144Z,15.00
2022-10-25T20:35:41.031Z,15.00
2022-10-25T20:38:11.872Z,15.00
2022-10-25T20:40:39.770Z,15.00
2022-10-25T20:43:07.035Z,15.00
2022-10-25T20:45:34.817Z,15.00
2022-10-25T20:48:02.028Z,15.00
2022-10-25T20:50:29.905Z,15.00
2022-10-25T20:53:12.094Z,15.00
2022-10-25T20:55:39.254Z,15.00
2022-10-25T20:58:06.369Z,15.10
2022-10-25T21:00:33.345Z,15.10
2022-10-25T21:03:00.568Z,15.00
2022-10-25T21:05:27.646Z,15.00
2022-10-25T21:07:54.568Z,15.00
2022-10-25T21:10:21.483Z,14.90
2022-10-25T21:12:48.527Z,14.80
2022-10-25T21:15:15.438Z,14.80
2022-10-25T21:17:42.355Z,14.70
2022-10-25T21:20:09.760Z,14.70
2022-10-25T21:22:41.280Z,14.70
2022-10-25T21:25:08.971Z,14.70
2022-10-25T21:27:36.000Z,14.60
2022-10-25T21:30:03.152Z,14.60
2022-10-25T21:32:32.052Z,14.60
2022-10-25T21:34:59.147Z,14.50
2022-10-25T21:37:26.197Z,14.50
2022-10-25T21:39:53.215Z,14.40
2022-10-25T21:42:20.331Z,14.30
2022-10-25T21:44:47.349Z,14.30
2022-10-25T21:47:18.752Z,14.40
2022-10-25T21:49:45.730Z,14.40
2022-10-25T21:52:12.588Z,14.40
2022-10-25T21:54:39.495Z,14.40
2022-10-25T21:57:06.460Z,14.30
2022-10-25T21:59:33.327Z,14.30
2022-10-25T22:02:00.477Z,14.30
2022-10-25T22:04:28.003Z,14.30
2022-10-25T22:06:54.950Z,14.20
2022-10-25T22:09:21.941Z,14.20
2022-10-25T22:11:51.524Z,14.20
2022-10-25T22:14:18.945Z,14.10
2022-10-25T22:16:45.825Z,14.10
2022-10-25T22:19:18.833Z,14.10
2022-10-25T22:21:46.293Z,14.00
2022-10-25T22:24:13.524Z,14.00
2022-10-25T22:26:43.152Z,13.90
2022-10-25T22:29:11.893Z,13.90
2022-10-25T22:31:39.772Z,13.90
2022-10-25T22:34:08.524Z,13.90
2022-10-25T22:36:38.198Z,13.80
2022-10-25T22:39:06.558Z,13.80
2022-10-25T22:41:33.927Z,13.70
2022-10-25T22:44:01.347Z,13.70
2022-10-25T22:46:35.859Z,13.70
2022-10-25T22:49:08.164Z,13.70
2022-10-25T22:51:36.302Z,13.70
2022-10-25T22:54:03.609Z,13.60
2022-10-25T22:56:31.517Z,13.60
2022-10-25T22:59:03.864Z,13.50
2022-10-25T23:01:33.081Z,13.40
2022-10-25T23:04:01.331Z,13.30
2022-10-25T23:06:33.721Z,13.30
2022-10-25T23:09:03.031Z,13.40
2022-10-25T23:11:34.678Z,13.20
2022-10-25T23:14:02.103Z,13.20
2022-10-25T23:16:29.495Z,13.20
2022-10-25T23:18:56.977Z,13.20
2022-10-25T23:21:25.994Z,13.20
2022-10-25T23:23:54.169Z,13.20
2022-10-25T23:26:23.453Z,13.20
2022-10-25T23:28:50.591Z,13.30
2022-10-25T23:31:17.993Z,13.40
2022-10-25T23:33:45.542Z,13.40
2022-10-25T23:36:19.496Z,13.40
2022-10-25T23:38:50.792Z,13.30
2022-10-25T23:41:19.472Z,13.20
2022-10-25T23:43:46.404Z,13.10
2022-10-25T23:46:13.739Z,13.10
2022-10-25T23:48:40.685Z,13.10
2022-10-25T23:51:10.094Z,13.10
2022-10-25T23:53:37.610Z,13.10
2022-10-25T23:56:06.917Z,13.00
2022-10-25T23:58:34.036Z,13.00
